Nearby METAR Reports

 

KDVT - Phoenix/Deer Vly, Arizona, USA
Distance from station: SSE 14mi, 22km
Updated: 10/28/2020 4:49pm
unable to load KDVT data RC=
unable to load KDVT data RC=
 
KSDL - Scottsdale, Arizona, USA
Distance from station: SE 22mi, 35km
Updated: 10/28/2020 4:49pm
unable to load KSDL data RC=
unable to load KSDL data RC=
 
 
KGEU - Glendale, Arizona, USA
Distance from station: SSW 25mi, 41km
Updated: 10/28/2020 4:49pm
unable to load KGEU data RC=
unable to load KGEU data RC=
 
KLUF - Luke Afb/Glendal, Arizona, USA
Distance from station: SSW 28mi, 45km
Updated: 10/28/2020 4:49pm
unable to load KLUF data RC=
unable to load KLUF data RC=
 
 
KPHX - Phoenix/Sky Hrbr, Arizona, USA
Distance from station: SSE 31mi, 51km
Updated: 10/28/2020 3:51pm
Clear
Clear
 Wind from N
Wind: N 3 mph , 6 km/h
Temperature: 70°F , 21°C
Dew Point: 21°F , -6°C
Humidity: 16%
Barometer: 29.99 inHg , 1015.6 hPa
Clouds: Clear
Visibility: 10 miles , 16 km
2020/10/28 22:51 KPHX 282251Z 35003KT 10SM CLR 21/M06 A2999 RMK AO2 SLP147 T02061061
KGYR - Goodyear Municip, Arizona, USA
Distance from station: SSW 34mi, 55km
Updated: 10/28/2020 4:49pm
unable to load KGYR data RC=
unable to load KGYR data RC=
 
 
KFFZ - Mesa/Falcon Fld, Arizona, USA
Distance from station: SE 37mi, 60km
Updated: 10/28/2020 4:49pm
unable to load KFFZ data RC=
unable to load KFFZ data RC=
 
KBXK - Buckeye, Arizona, USA
Distance from station: SW 45mi, 72km
Updated: 10/28/2020 4:49pm
unable to load KBXK data RC=
unable to load KBXK data RC=
 
 
KIWA - Chandler/Mesa, Arizona, USA
Distance from station: SE 49mi, 78km
Updated: 10/28/2020 4:49pm
unable to load KIWA data RC=
unable to load KIWA data RC=
 
KPAN - Payson, Arizona, USA
Distance from station: ENE 53mi, 85km
Updated: 10/28/2020 4:49pm
unable to load KPAN data RC=
unable to load KPAN data RC=
 
 
KPRC - Prescott, Arizona, USA
Distance from station: NNW 56mi, 90km
Updated: 10/28/2020 4:49pm
unable to load KPRC data RC=
unable to load KPRC data RC=
 
KCGZ - Casa Granda, Arizona, USA
Distance from station: SSE 67mi, 109km
Updated: 10/28/2020 3:56pm
Clear
Clear
 Wind from calm
Wind: Calm
Temperature: 68°F , 20°C
Dew Point: 23°F , -5°C
Humidity: 18%
Barometer: 30.02 inHg , 1016.6 hPa
Clouds: Clear
Visibility: 10 miles , 16 km
2020/10/28 22:56 KCGZ 282256Z AUTO 00000KT 10SM CLR 20/M05 A3002 RMK AO2 SLP162 T02001050
 
KSEZ - Sedona, Arizona, USA
Distance from station: NNE 70mi, 113km
Updated: 10/28/2020 4:35pm
Clear
Clear
 Wind from S
Wind: S 3 mph , 6 km/h
Temperature: 64°F , 18°C
Dew Point: 21°F , -6°C
Humidity: 19%
Barometer: 30.07 inHg , 1018.3 hPa
Clouds: Clear
Visibility: 10 miles , 16 km
2020/10/28 23:35 KSEZ 282335Z AUTO 19003KT 10SM CLR 18/M06 A3007 RMK AO2
KGXF - Gila Bend (aaf), Arizona, USA
Distance from station: SSW 77mi, 124km
Updated: 10/28/2020 3:58pm
Clear
Clear
 Wind from NNE
Wind: NNE 6 mph , 9 km/h
Temperature: 72°F , 22°C
Dew Point: 14°F , -10°C
Humidity: 11%
Barometer: 29.99 inHg , 1015.6 hPa
Clouds: Clear
Visibility: 10 miles , 16 km
2020/10/28 22:58 KGXF 282258Z AUTO 03005KT 10SM CLR 22/M10 A2999 RMK AO2 SLP151 T02161101
 
KP08 - Coolidge Muni, Arizona, USA
Distance from station: SSE 77mi, 124km
Updated: 10/28/2020 4:50pm
unable to load KP08 data RC=
unable to load KP08 data RC=
 
KFLG - Flagstaff, Arizona, USA
Distance from station: NNE 91mi, 146km
Updated: 10/28/2020 3:57pm
Clear
Clear
 Wind from ENE
Wind: ENE 13 mph , 20 km/h
Temperature: 57°F , 14°C
Dew Point: 21°F , -6°C
Humidity: 25%
Barometer: 30.14 inHg , 1020.7 hPa
Clouds: Clear
Visibility: 10 miles , 16 km
2020/10/28 22:57 KFLG 282257Z 07011KT 10SM CLR 14/M06 A3014 RMK AO2 SLP179 T01391061
 
KCMR - Williams Clark, Arizona, USA
Distance from station: N 98mi, 158km
Updated: 10/28/2020 4:50pm
unable to load KCMR data RC=
unable to load KCMR data RC=